Seiryu — JL6546 — position and weather

sailwx.info

Track history (hours):
 
Tides and Currents Weather Stations Pressure Air Temp Water Temp Dewpoint Dewpoint Depression Visibility Wind Speed Wind Dir Waves Ship Positions

Seiryu

Last reported at 2018-Apr-25 13:36 UTC. Time now 2018-Apr-25 14:12 UTC.
Position N 34°53' E 139°51'.

Length 64 m; draft 5.6 m.

Type: Ship (hazmat cat C). MMSI: 431500624.

Date/timePositionNaut miles runAvg speedWind from/ knotsBaromVisibWave heightAir tempDewpointWater temp
2018-Apr-25 13:36N 34°53' E 139°51'111.6
2018-Apr-25 13:30N 34°53' E 139°50'510.2
2018-Apr-25 12:59N 34°56' E 139°45'510.3
2018-Apr-25 12:30N 35°01' E 139°44'611.2
2018-Apr-25 12:00N 35°06' E 139°45'510.9
2018-Apr-25 11:30N 35°12' E 139°46'510.5
2018-Apr-25 11:00N 35°17' E 139°45'510.7
2018-Apr-25 10:30N 35°22' E 139°42'5 9.7
2018-Apr-25 10:00N 35°25' E 139°47'5 9.6
2018-Apr-25 09:30N 35°22' E 139°51'0 0.1
2018-Apr-25 09:00N 35°22' E 139°51'0 0.0
2018-Apr-25 08:30N 35°22' E 139°51'0 0.1
2018-Apr-25 08:00N 35°22' E 139°51'0 0.0
2018-Apr-25 07:30N 35°22' E 139°51'0 0.0
2018-Apr-25 07:00N 35°22' E 139°51'0 0.1
2018-Apr-25 06:30N 35°22' E 139°51'0 0.1
2018-Apr-25 06:00N 35°22' E 139°51'0 0.1
2018-Apr-25 05:30N 35°22' E 139°51'1 2.5
2018-Apr-25 05:00N 35°22' E 139°49'5 9.9
2018-Apr-25 04:30N 35°19' E 139°44'611.2
2018-Apr-25 04:01N 35°14' E 139°47'612.1
2018-Apr-25 03:30N 35°08' E 139°47'612.2
2018-Apr-25 03:00N 35°02' E 139°47'4 8.1
2018-Apr-25 02:31N 34°59' E 139°51'0 0.0
2018-Apr-25 02:00N 34°59' E 139°51'0 0.0
2018-Apr-25 01:30N 34°59' E 139°51'0 0.0
2018-Apr-25 01:00N 34°59' E 139°51'0 0.0
2018-Apr-25 00:30N 34°59' E 139°51'0 0.0
2018-Apr-25 00:00N 34°59' E 139°51'0 0.0
2018-Apr-24 23:30N 34°59' E 139°51'0 0.0
2018-Apr-24 23:00N 34°59' E 139°51'0 0.0
2018-Apr-24 22:30N 34°59' E 139°51'0 0.0
2018-Apr-24 21:59N 34°59' E 139°51'0 0.1
2018-Apr-24 21:30N 34°59' E 139°51'1 1.7
2018-Apr-24 21:00N 35°00' E 139°51'0 0.0
2018-Apr-24 20:30N 35°00' E 139°51'0 0.0
2018-Apr-24 20:00N 35°00' E 139°51'0 0.0
2018-Apr-24 19:30N 35°00' E 139°51'0 0.0
2018-Apr-24 19:00N 35°00' E 139°51'0 0.0
2018-Apr-24 18:30N 35°00' E 139°51'0 0.0
2018-Apr-24 18:00N 35°00' E 139°51'0 0.1
2018-Apr-24 17:30N 35°00' E 139°51'0 0.0
2018-Apr-24 17:00N 35°00' E 139°51'0 0.1
2018-Apr-24 16:30N 35°00' E 139°51'0 0.0
2018-Apr-24 15:59N 35°00' E 139°51'0 0.0
2018-Apr-24 15:30N 35°00' E 139°51'0 0.0
2018-Apr-24 15:00N 35°00' E 139°51'0 0.0
2018-Apr-24 14:30N 35°00' E 139°51'0 0.1
2018-Apr-24 14:00N 35°00' E 139°51'3 6.8
2018-Apr-24 13:30N 35°03' E 139°48'510.1
2018-Apr-24 13:00N 35°07' E 139°47'510.6
2018-Apr-24 12:30N 35°13' E 139°46'510.4
2018-Apr-24 12:00N 35°18' E 139°44'510.7
2018-Apr-24 11:30N 35°23' E 139°42'5 9.2
2018-Apr-24 11:00N 35°25' E 139°47'4 8.8
2018-Apr-24 10:30N 35°22' E 139°51'0 0.0
2018-Apr-24 10:00N 35°22' E 139°51'0 0.0
2018-Apr-24 09:30N 35°22' E 139°51'0 0.0
2018-Apr-24 09:01N 35°22' E 139°51'0 0.0
2018-Apr-24 08:30N 35°22' E 139°51'0 0.0
2018-Apr-24 08:00N 35°22' E 139°51'1 1.2
2018-Apr-24 07:30N 35°22' E 139°50'1 1.8
2018-Apr-24 07:00N 35°22' E 139°49'0 0.1
2018-Apr-24 06:30N 35°22' E 139°49'0 0.1
2018-Apr-24 06:00N 35°22' E 139°49'0 0.0
2018-Apr-24 05:31N 35°22' E 139°49'0 0.0
2018-Apr-24 05:00N 35°22' E 139°49'0 0.0
2018-Apr-24 04:30N 35°22' E 139°49'0 0.0
2018-Apr-24 04:00N 35°22' E 139°49'0 0.0
2018-Apr-24 03:31N 35°22' E 139°49'0 0.0
2018-Apr-24 03:00N 35°22' E 139°49'0 0.0
2018-Apr-24 02:30N 35°22' E 139°49'0 0.0
2018-Apr-24 02:00N 35°22' E 139°49'0 0.0
2018-Apr-24 01:30N 35°22' E 139°49'0 0.1
2018-Apr-24 01:00N 35°22' E 139°49'0 0.1
2018-Apr-24 00:30N 35°22' E 139°49'0 0.0
2018-Apr-24 00:00N 35°22' E 139°49'0 0.0
2018-Apr-23 23:30N 35°22' E 139°49'0 0.0
2018-Apr-23 23:00N 35°22' E 139°49'0 0.0
2018-Apr-23 22:30N 35°22' E 139°49'0 0.0
2018-Apr-23 22:00N 35°22' E 139°49'0 0.0
2018-Apr-23 21:30N 35°22' E 139°49'0 0.0
2018-Apr-23 21:00N 35°22' E 139°49'0 0.0
2018-Apr-23 20:30N 35°22' E 139°49'0 0.0
2018-Apr-23 20:00N 35°22' E 139°49'0 0.0
2018-Apr-23 19:30N 35°22' E 139°49'0 0.0
2018-Apr-23 19:00N 35°22' E 139°49'0 0.1
2018-Apr-23 18:30N 35°22' E 139°49'0 0.0
2018-Apr-23 18:00N 35°22' E 139°49'0 0.0
2018-Apr-23 17:30N 35°22' E 139°49'0 0.0
2018-Apr-23 17:00N 35°22' E 139°49'0 0.0
2018-Apr-23 16:30N 35°22' E 139°49'0 0.1
2018-Apr-23 16:00N 35°22' E 139°49'0 0.1
2018-Apr-23 15:30N 35°22' E 139°49'0 0.0
2018-Apr-23 15:00N 35°22' E 139°49'4 8.0
2018-Apr-23 14:30N 35°21' E 139°45'510.7
2018-Apr-23 14:00N 35°16' E 139°47'611.6
2018-Apr-23 13:30N 35°10' E 139°47'611.7
2018-Apr-23 13:00N 35°04' E 139°46'611.6
2018-Apr-23 12:31N 34°58' E 139°44'510.7
2018-Apr-23 12:00N 34°54' E 139°48'910.4
2018-Apr-23 11:09N 34°55' E 139°59'211.4
2018-Apr-23 10:58N 34°56' E 140°01'511.3
2018-Apr-23 10:30N 34°59' E 140°06'  
Track history (hours):
 
Tides and Currents Weather Stations Pressure Air Temp Water Temp Dewpoint Dewpoint Depression Visibility Wind Speed Wind Dir Waves Ship Positions

Seiryu

Last reported at 2018-Apr-25 13:36 UTC. Time now 2018-Apr-25 14:12 UTC.
Position N 34°53' E 139°51'.

Length 64 m; draft 5.6 m.

Type: Ship (hazmat cat C). MMSI: 431500624.

Date/timePositionNaut miles runAvg speedWind from/ knotsBaromVisibWave heightAir tempDewpointWater temp
2018-Apr-25 13:36N 34°53' E 139°51'111.6
2018-Apr-25 13:30N 34°53' E 139°50'510.2
2018-Apr-25 12:59N 34°56' E 139°45'510.3
2018-Apr-25 12:30N 35°01' E 139°44'611.2
2018-Apr-25 12:00N 35°06' E 139°45'510.9
2018-Apr-25 11:30N 35°12' E 139°46'510.5
2018-Apr-25 11:00N 35°17' E 139°45'510.7
2018-Apr-25 10:30N 35°22' E 139°42'5 9.7
2018-Apr-25 10:00N 35°25' E 139°47'5 9.6
2018-Apr-25 09:30N 35°22' E 139°51'0 0.1
2018-Apr-25 09:00N 35°22' E 139°51'0 0.0
2018-Apr-25 08:30N 35°22' E 139°51'0 0.1
2018-Apr-25 08:00N 35°22' E 139°51'0 0.0
2018-Apr-25 07:30N 35°22' E 139°51'0 0.0
2018-Apr-25 07:00N 35°22' E 139°51'0 0.1
2018-Apr-25 06:30N 35°22' E 139°51'0 0.1
2018-Apr-25 06:00N 35°22' E 139°51'0 0.1
2018-Apr-25 05:30N 35°22' E 139°51'1 2.5
2018-Apr-25 05:00N 35°22' E 139°49'5 9.9
2018-Apr-25 04:30N 35°19' E 139°44'611.2
2018-Apr-25 04:01N 35°14' E 139°47'612.1
2018-Apr-25 03:30N 35°08' E 139°47'612.2
2018-Apr-25 03:00N 35°02' E 139°47'4 8.1
2018-Apr-25 02:31N 34°59' E 139°51'0 0.0
2018-Apr-25 02:00N 34°59' E 139°51'0 0.0
2018-Apr-25 01:30N 34°59' E 139°51'0 0.0
2018-Apr-25 01:00N 34°59' E 139°51'0 0.0
2018-Apr-25 00:30N 34°59' E 139°51'0 0.0
2018-Apr-25 00:00N 34°59' E 139°51'0 0.0
2018-Apr-24 23:30N 34°59' E 139°51'0 0.0
2018-Apr-24 23:00N 34°59' E 139°51'0 0.0
2018-Apr-24 22:30N 34°59' E 139°51'0 0.0
2018-Apr-24 21:59N 34°59' E 139°51'0 0.1
2018-Apr-24 21:30N 34°59' E 139°51'1 1.7
2018-Apr-24 21:00N 35°00' E 139°51'0 0.0
2018-Apr-24 20:30N 35°00' E 139°51'0 0.0
2018-Apr-24 20:00N 35°00' E 139°51'0 0.0
2018-Apr-24 19:30N 35°00' E 139°51'0 0.0
2018-Apr-24 19:00N 35°00' E 139°51'0 0.0
2018-Apr-24 18:30N 35°00' E 139°51'0 0.0
2018-Apr-24 18:00N 35°00' E 139°51'0 0.1
2018-Apr-24 17:30N 35°00' E 139°51'0 0.0
2018-Apr-24 17:00N 35°00' E 139°51'0 0.1
2018-Apr-24 16:30N 35°00' E 139°51'0 0.0
2018-Apr-24 15:59N 35°00' E 139°51'0 0.0
2018-Apr-24 15:30N 35°00' E 139°51'0 0.0
2018-Apr-24 15:00N 35°00' E 139°51'0 0.0
2018-Apr-24 14:30N 35°00' E 139°51'0 0.1
2018-Apr-24 14:00N 35°00' E 139°51'3 6.8
2018-Apr-24 13:30N 35°03' E 139°48'510.1
2018-Apr-24 13:00N 35°07' E 139°47'510.6
2018-Apr-24 12:30N 35°13' E 139°46'510.4
2018-Apr-24 12:00N 35°18' E 139°44'510.7
2018-Apr-24 11:30N 35°23' E 139°42'5 9.2
2018-Apr-24 11:00N 35°25' E 139°47'4 8.8
2018-Apr-24 10:30N 35°22' E 139°51'0 0.0
2018-Apr-24 10:00N 35°22' E 139°51'0 0.0
2018-Apr-24 09:30N 35°22' E 139°51'0 0.0
2018-Apr-24 09:01N 35°22' E 139°51'0 0.0
2018-Apr-24 08:30N 35°22' E 139°51'0 0.0
2018-Apr-24 08:00N 35°22' E 139°51'1 1.2
2018-Apr-24 07:30N 35°22' E 139°50'1 1.8
2018-Apr-24 07:00N 35°22' E 139°49'0 0.1
2018-Apr-24 06:30N 35°22' E 139°49'0 0.1
2018-Apr-24 06:00N 35°22' E 139°49'0 0.0
2018-Apr-24 05:31N 35°22' E 139°49'0 0.0
2018-Apr-24 05:00N 35°22' E 139°49'0 0.0
2018-Apr-24 04:30N 35°22' E 139°49'0 0.0
2018-Apr-24 04:00N 35°22' E 139°49'0 0.0
2018-Apr-24 03:31N 35°22' E 139°49'0 0.0
2018-Apr-24 03:00N 35°22' E 139°49'0 0.0
2018-Apr-24 02:30N 35°22' E 139°49'0 0.0
2018-Apr-24 02:00N 35°22' E 139°49'0 0.0
2018-Apr-24 01:30N 35°22' E 139°49'0 0.1
2018-Apr-24 01:00N 35°22' E 139°49'0 0.1
2018-Apr-24 00:30N 35°22' E 139°49'0 0.0
2018-Apr-24 00:00N 35°22' E 139°49'0 0.0
2018-Apr-23 23:30N 35°22' E 139°49'0 0.0
2018-Apr-23 23:00N 35°22' E 139°49'0 0.0
2018-Apr-23 22:30N 35°22' E 139°49'0 0.0
2018-Apr-23 22:00N 35°22' E 139°49'0 0.0
2018-Apr-23 21:30N 35°22' E 139°49'0 0.0
2018-Apr-23 21:00N 35°22' E 139°49'0 0.0
2018-Apr-23 20:30N 35°22' E 139°49'0 0.0
2018-Apr-23 20:00N 35°22' E 139°49'0 0.0
2018-Apr-23 19:30N 35°22' E 139°49'0 0.0
2018-Apr-23 19:00N 35°22' E 139°49'0 0.1
2018-Apr-23 18:30N 35°22' E 139°49'0 0.0
2018-Apr-23 18:00N 35°22' E 139°49'0 0.0
2018-Apr-23 17:30N 35°22' E 139°49'0 0.0
2018-Apr-23 17:00N 35°22' E 139°49'0 0.0
2018-Apr-23 16:30N 35°22' E 139°49'0 0.1
2018-Apr-23 16:00N 35°22' E 139°49'0 0.1
2018-Apr-23 15:30N 35°22' E 139°49'0 0.0
2018-Apr-23 15:00N 35°22' E 139°49'4 8.0
2018-Apr-23 14:30N 35°21' E 139°45'510.7
2018-Apr-23 14:00N 35°16' E 139°47'611.6
2018-Apr-23 13:30N 35°10' E 139°47'611.7
2018-Apr-23 13:00N 35°04' E 139°46'611.6
2018-Apr-23 12:31N 34°58' E 139°44'510.7
2018-Apr-23 12:00N 34°54' E 139°48'910.4
2018-Apr-23 11:09N 34°55' E 139°59'211.4
2018-Apr-23 10:58N 34°56' E 140°01'511.3
2018-Apr-23 10:30N 34°59' E 140°06'  

Dump ship's entire track history